Time;durP1;ratioP1;P1;durP2;ratioP2;P2;SDS_P1;SDS_P2;PMS_P1;PMS_P2;Temp;Humidity;BMP_temperature;BMP_pressure;BME280_temperature;BME280_humidity;BME280_pressure;Samples;Min_cycle;Max_cycle;Signal;HPM_P1;HPM_P2
2022/04/30 11:44:19;;;;;;;2.67;1.23;;;14.10;94.90;;;;;;4909613;23;20325;-73
2022/04/30 11:46:48;;;;;;;4.37;1.43;;;13.90;95.30;;;;;;4953200;29;20675;-73
2022/04/30 11:49:17;;;;;;;2.07;1.47;;;14.00;94.70;;;;;;4945699;29;20270;-74
2022/04/30 11:51:45;;;;;;;1.70;1.20;;;14.20;95.30;;;;;;4957414;28;20682;-75
2022/04/30 11:54:13;;;;;;;1.87;1.40;;;14.70;94.20;;;;;;4949804;28;20204;-76
2022/04/30 11:56:43;;;;;;;2.43;1.20;;;15.10;93.60;;;;;;4955546;28;20218;-74
2022/04/30 11:59:10;;;;;;;2.60;1.50;;;15.10;93.80;;;;;;4952863;28;20225;-74
2022/04/30 12:01:40;;;;;;;2.77;1.70;;;15.10;94.00;;;;;;4948148;29;20238;-74
2022/04/30 12:04:11;;;;;;;1.97;1.40;;;15.00;93.90;;;;;;4956115;28;20218;-74
2022/04/30 12:06:39;;;;;;;1.67;1.23;;;15.20;94.00;;;;;;4946262;28;20714;-74
2022/04/30 12:09:14;;;;;;;2.13;1.40;;;15.10;93.10;;;;;;4955029;28;20698;-73
2022/04/30 12:11:42;;;;;;;1.87;1.40;;;15.10;93.50;;;;;;4948311;29;20299;-74
2022/04/30 12:14:10;;;;;;;3.10;1.40;;;14.90;93.20;;;;;;4941739;28;20251;-75
2022/04/30 12:16:40;;;;;;;5.53;1.43;;;14.90;94.00;;;;;;4946356;28;20212;-70
2022/04/30 12:25:09;;;;;;;1.87;1.43;;;15.00;92.60;;;;;;4937675;29;20263;-75
2022/04/30 12:27:36;;;;;;;1.97;1.33;;;15.10;93.20;;;;;;4936974;29;20663;-70
2022/04/30 12:30:12;;;;;;;2.00;1.30;;;15.00;93.50;;;;;;4943607;29;20287;-74
2022/04/30 12:32:52;;;;;;;1.83;1.30;;;14.90;93.50;;;;;;4956260;28;20247;-73
2022/04/30 12:35:25;;;;;;;2.73;1.40;;;14.70;93.70;;;;;;4948974;29;20207;-72
2022/04/30 12:38:05;;;;;;;3.10;1.90;;;14.80;93.90;;;;;;4954270;28;20208;-70
2022/04/30 12:40:32;;;;;;;1.93;1.50;;;15.00;93.50;;;;;;4955650;28;20234;-74
2022/04/30 12:43:00;;;;;;;4.37;2.00;;;15.30;94.10;;;;;;4947593;29;20236;-70
2022/04/30 12:45:27;;;;;;;3.63;1.67;;;15.50;93.20;;;;;;4951227;29;20200;-71
2022/04/30 12:47:55;;;;;;;3.47;1.90;;;15.60;93.50;;;;;;4954440;28;20213;-77
2022/04/30 12:50:22;;;;;;;2.60;1.70;;;16.00;92.70;;;;;;4953786;28;20231;-75
2022/04/30 12:52:48;;;;;;;4.17;1.80;;;16.10;92.20;;;;;;4953419;28;20204;-76
2022/04/30 12:55:18;;;;;;;2.60;2.00;;;15.90;91.80;;;;;;4955561;28;20204;-71
2022/04/30 12:57:45;;;;;;;2.03;1.57;;;15.80;92.20;;;;;;4955238;28;20212;-71
2022/04/30 13:00:13;;;;;;;2.80;1.90;;;15.60;92.90;;;;;;4955134;28;20227;-72
2022/04/30 13:02:41;;;;;;;2.47;1.63;;;15.50;93.30;;;;;;4955406;28;20242;-71
2022/04/30 13:05:10;;;;;;;2.47;1.40;;;15.30;93.50;;;;;;4954215;28;20718;-71
2022/04/30 13:07:39;;;;;;;4.20;1.77;;;15.10;93.60;;;;;;4955599;28;20208;-70
2022/04/30 13:15:41;;;;;;;3.37;1.70;;;14.60;94.30;;;;;;4936581;29;20208;-70
2022/04/30 13:18:08;;;;;;;4.67;1.70;;;14.70;93.80;;;;;;4953748;28;20223;-73
2022/04/30 13:20:37;;;;;;;2.87;1.73;;;14.60;93.60;;;;;;4945965;29;20234;-74
2022/04/30 13:23:04;;;;;;;2.80;1.60;;;14.70;93.90;;;;;;4945955;28;20232;-69
2022/04/30 13:25:31;;;;;;;2.40;1.57;;;14.60;94.40;;;;;;4946346;29;20450;-73
2022/04/30 13:27:58;;;;;;;2.87;1.70;;;14.90;93.60;;;;;;4940513;28;20208;-74
2022/04/30 13:30:26;;;;;;;2.47;1.50;;;15.10;93.20;;;;;;4954621;28;20227;-69
2022/04/30 13:32:53;;;;;;;2.93;1.80;;;14.90;93.50;;;;;;4954874;29;20212;-73
2022/04/30 13:35:20;;;;;;;2.23;1.70;;;15.00;93.50;;;;;;4944552;28;20232;-70
2022/04/30 13:37:51;;;;;;;2.77;2.00;;;15.10;93.20;;;;;;4940315;28;20209;-74
2022/04/30 13:40:19;;;;;;;3.97;2.00;;;15.40;93.40;;;;;;4952898;28;20665;-76
2022/04/30 13:42:46;;;;;;;3.63;1.70;;;15.60;92.50;;;;;;4948354;28;20698;-78
2022/04/30 13:45:13;;;;;;;3.57;1.83;;;15.70;93.10;;;;;;4944001;29;20708;-74
2022/04/30 13:47:41;;;;;;;4.03;2.20;;;15.80;92.80;;;;;;4941328;28;20215;-77
2022/04/30 13:50:10;;;;;;;3.13;2.13;;;15.80;92.70;;;;;;4951840;28;20238;-76
2022/04/30 13:52:38;;;;;;;5.47;1.90;;;15.50;93.10;;;;;;4954120;28;20207;-68
2022/04/30 13:55:08;;;;;;;3.17;1.80;;;14.70;94.70;;;;;;4954463;28;20310;-72
2022/04/30 13:57:36;;;;;;;2.47;1.50;;;14.20;95.60;;;;;;4955092;28;20208;-76
2022/04/30 14:00:04;;;;;;;2.30;1.40;;;14.00;95.90;;;;;;4953817;28;20238;-74
2022/04/30 14:02:31;;;;;;;3.43;1.63;;;13.60;96.30;;;;;;4955613;28;20240;-69
2022/04/30 14:04:58;;;;;;;2.57;1.70;;;13.40;96.80;;;;;;4954279;28;20336;-69
2022/04/30 14:07:25;;;;;;;2.67;1.93;;;13.20;97.20;;;;;;4946704;28;20259;-67
2022/04/30 14:09:52;;;;;;;5.33;2.13;;;13.20;97.50;;;;;;4953370;28;20228;-68
2022/04/30 14:12:20;;;;;;;2.53;1.40;;;13.20;97.70;;;;;;4953552;28;20204;-68
2022/04/30 14:14:58;;;;;;;2.40;1.43;;;13.10;98.60;;;;;;4951172;28;20220;-72
2022/04/30 14:20:11;;;;;;;2.93;1.40;;;13.00;98.90;;;;;;4952794;28;20367;-75
2022/04/30 14:22:38;;;;;;;2.90;1.67;;;13.00;99.00;;;;;;4953438;28;20244;-71
2022/04/30 14:25:09;;;;;;;2.13;1.47;;;12.80;99.30;;;;;;4953822;28;20215;-71
2022/04/30 14:27:38;;;;;;;3.80;1.50;;;12.90;99.60;;;;;;4953215;28;20204;-69
2022/04/30 14:30:06;;;;;;;4.33;1.93;;;12.90;99.50;;;;;;4934471;29;20228;-70
2022/04/30 14:32:33;;;;;;;3.13;1.70;;;13.00;99.70;;;;;;4935023;29;20549;-70
2022/04/30 14:35:00;;;;;;;4.33;1.60;;;12.90;99.60;;;;;;4948881;29;20218;-69
2022/04/30 14:37:29;;;;;;;9.70;1.77;;;12.80;99.90;;;;;;4953344;28;20204;-71
2022/04/30 14:39:56;;;;;;;3.50;2.30;;;12.70;99.90;;;;;;4954182;28;20599;-74
2022/04/30 14:42:25;;;;;;;4.77;1.77;;;12.70;99.90;;;;;;4953618;28;20232;-69
2022/04/30 14:44:53;;;;;;;4.67;1.93;;;12.60;99.90;;;;;;4954741;28;20212;-72
2022/04/30 14:47:20;;;;;;;3.40;1.60;;;12.60;99.90;;;;;;4954889;28;20208;-73
2022/04/30 14:49:47;;;;;;;2.80;1.90;;;12.60;99.90;;;;;;4953676;28;20750;-77
